createdAt,value
2018-04-08T07:40:26.446Z,11.57
2018-04-08T07:41:33.189Z,11.15
2018-04-08T07:42:39.453Z,11.80
2018-04-08T07:43:45.696Z,12.07
2018-04-08T07:44:52.785Z,10.63
2018-04-08T07:45:59.132Z,11.68
2018-04-08T07:47:05.452Z,13.73
2018-04-08T07:48:11.740Z,10.98
2018-04-08T07:49:18.082Z,11.73
2018-04-08T07:50:24.355Z,11.15
2018-04-08T07:51:30.696Z,11.73
2018-04-08T07:52:37.951Z,12.27
2018-04-08T07:53:44.008Z,13.93
2018-04-08T07:54:50.342Z,12.13
2018-04-08T07:55:56.649Z,13.23
2018-04-08T07:57:02.967Z,12.02
2018-04-08T07:58:09.280Z,11.90
2018-04-08T07:59:15.565Z,12.37
2018-04-08T08:00:21.800Z,11.85
2018-04-08T08:01:29.273Z,13.05
2018-04-08T08:02:35.493Z,12.32
2018-04-08T08:03:41.805Z,15.35
2018-04-08T08:04:48.076Z,15.32
2018-04-08T08:05:54.384Z,14.05
2018-04-08T08:07:00.694Z,12.57
2018-04-08T08:08:06.976Z,12.48
2018-04-08T08:09:13.272Z,12.95
2018-04-08T08:10:20.141Z,12.45
2018-04-08T08:11:26.499Z,11.82
2018-04-08T08:12:33.470Z,13.52
2018-04-08T08:13:39.795Z,12.63
2018-04-08T08:14:46.106Z,12.25
2018-04-08T08:15:52.438Z,15.55
2018-04-08T08:17:01.171Z,12.68
2018-04-08T08:18:09.929Z,15.77
2018-04-08T08:19:16.271Z,11.85
2018-04-08T08:20:22.572Z,12.85
2018-04-08T08:21:28.887Z,13.07
2018-04-08T08:22:34.975Z,11.70
2018-04-08T08:23:41.224Z,14.13
2018-04-08T08:24:47.648Z,16.58
2018-04-08T08:25:54.420Z,12.40
2018-04-08T08:27:00.877Z,12.00
2018-04-08T08:28:07.136Z,12.93
2018-04-08T08:29:13.353Z,12.07
2018-04-08T08:30:19.698Z,12.60
2018-04-08T08:31:25.765Z,13.65
2018-04-08T08:32:32.008Z,11.82
2018-04-08T08:33:38.333Z,12.00
2018-04-08T08:34:44.610Z,11.85
2018-04-08T08:35:50.935Z,11.80
2018-04-08T08:36:57.232Z,10.73
2018-04-08T08:38:03.371Z,12.43
2018-04-08T08:39:10.141Z,11.65
2018-04-08T08:40:16.376Z,12.05
2018-04-08T08:41:22.711Z,11.45
2018-04-08T08:42:29.015Z,13.10
2018-04-08T08:43:35.992Z,11.65
2018-04-08T08:44:42.464Z,12.20
2018-04-08T08:45:48.776Z,12.05
2018-04-08T08:46:55.740Z,11.32
2018-04-08T08:48:02.012Z,11.88
2018-04-08T08:49:08.206Z,11.45
2018-04-08T08:50:14.523Z,11.43
2018-04-08T08:51:20.848Z,12.15
2018-04-08T08:52:27.153Z,10.70
2018-04-08T08:53:33.568Z,13.35
2018-04-08T08:54:40.584Z,10.57
2018-04-08T08:55:47.428Z,11.40
2018-04-08T08:56:58.827Z,12.02
2018-04-08T08:58:06.154Z,13.20
2018-04-08T08:59:12.656Z,12.75
2018-04-08T09:00:18.945Z,12.07
2018-04-08T09:01:25.174Z,13.05
2018-04-08T09:02:31.439Z,13.62
2018-04-08T09:03:37.623Z,13.98
2018-04-08T09:04:44.036Z,11.68
2018-04-08T09:05:50.363Z,12.00
2018-04-08T09:06:56.667Z,11.65
2018-04-08T09:08:02.968Z,9.70
2018-04-08T09:09:09.271Z,12.73
2018-04-08T09:10:15.673Z,11.52
2018-04-08T09:11:21.917Z,10.45
2018-04-08T09:12:28.242Z,12.23
2018-04-08T09:13:34.550Z,11.57
2018-04-08T09:14:40.604Z,12.55
2018-04-08T09:15:46.633Z,11.82
2018-04-08T09:16:52.633Z,10.65
2018-04-08T09:18:04.344Z,11.50
2018-04-08T09:19:30.723Z,10.43
2018-04-08T09:22:16.183Z,11.40
2018-04-08T09:24:58.144Z,11.10
2018-04-08T09:26:06.144Z,10.98
2018-04-08T09:27:12.247Z,10.48
2018-04-08T09:28:19.025Z,10.90
2018-04-08T09:29:25.491Z,10.13
2018-04-08T09:30:31.736Z,10.63
2018-04-08T09:31:37.803Z,10.05
2018-04-08T09:32:44.092Z,10.40
2018-04-08T09:33:50.110Z,9.93
2018-04-08T09:34:56.218Z,10.90
2018-04-08T09:36:02.924Z,9.93
2018-04-08T09:37:08.665Z,11.15
2018-04-08T09:38:14.864Z,9.88
2018-04-08T09:39:20.856Z,9.88
2018-04-08T09:40:27.101Z,9.68
2018-04-08T09:41:33.325Z,11.10
2018-04-08T09:42:39.602Z,9.70
2018-04-08T09:43:45.807Z,12.75
2018-04-08T09:44:52.041Z,9.57
2018-04-08T09:45:58.249Z,10.30
2018-04-08T09:47:04.453Z,9.85
2018-04-08T09:48:10.661Z,10.18
2018-04-08T09:49:16.880Z,9.68
2018-04-08T09:50:23.511Z,10.43
2018-04-08T09:51:29.808Z,8.65
2018-04-08T09:52:36.088Z,10.13
2018-04-08T09:53:42.332Z,10.07
2018-04-08T09:54:48.411Z,10.90
2018-04-08T09:55:54.420Z,9.70
2018-04-08T09:57:00.470Z,10.80
2018-04-08T09:58:06.528Z,9.63
2018-04-08T09:59:12.655Z,14.25
2018-04-08T10:00:29.697Z,11.20
2018-04-08T10:01:43.422Z,10.57
2018-04-08T10:04:24.699Z,11.57
2018-04-08T10:05:30.757Z,9.65
2018-04-08T10:06:37.190Z,11.12
2018-04-08T10:07:43.405Z,10.00
2018-04-08T10:08:49.741Z,11.18
2018-04-08T10:09:56.058Z,11.40
2018-04-08T10:11:02.332Z,10.75
2018-04-08T10:12:08.556Z,9.88
2018-04-08T10:13:14.838Z,9.43
2018-04-08T10:14:21.048Z,9.77
2018-04-08T10:15:27.269Z,9.77
2018-04-08T10:16:33.493Z,9.10
2018-04-08T10:17:39.770Z,9.90
2018-04-08T10:18:46.089Z,8.40
2018-04-08T10:19:52.204Z,10.20
2018-04-08T10:20:58.178Z,9.70
2018-04-08T10:22:04.198Z,8.75
2018-04-08T10:23:10.203Z,9.35
2018-04-08T10:24:16.229Z,9.75
2018-04-08T10:25:23.463Z,8.98
2018-04-08T10:26:29.677Z,7.95
2018-04-08T10:27:36.001Z,8.77
2018-04-08T10:28:42.408Z,9.88
2018-04-08T10:29:48.652Z,10.30
2018-04-08T10:30:55.245Z,9.75
2018-04-08T10:32:01.665Z,9.85
2018-04-08T10:33:07.968Z,9.45
2018-04-08T10:34:14.169Z,12.30
2018-04-08T10:35:20.387Z,10.27
2018-04-08T10:36:26.610Z,9.05
2018-04-08T10:37:32.881Z,9.93
2018-04-08T10:38:39.092Z,9.45
2018-04-08T10:39:45.434Z,9.38
2018-04-08T10:40:51.724Z,8.50
2018-04-08T10:41:58.136Z,9.60
2018-04-08T10:43:04.660Z,9.88
2018-04-08T10:44:10.861Z,9.52
2018-04-08T10:45:17.144Z,10.13
2018-04-08T10:46:23.398Z,10.02
2018-04-08T10:47:29.364Z,9.30
2018-04-08T10:48:35.620Z,10.75
2018-04-08T10:49:41.932Z,9.38
2018-04-08T10:50:48.023Z,10.30
2018-04-08T10:51:54.012Z,9.45
2018-04-08T10:53:00.353Z,8.18
2018-04-08T10:54:06.572Z,10.30
2018-04-08T10:55:12.881Z,10.07
2018-04-08T10:56:19.213Z,10.65
2018-04-08T10:57:25.488Z,9.52
2018-04-08T10:58:31.703Z,10.27
2018-04-08T10:59:38.028Z,11.00
2018-04-08T11:00:44.351Z,10.73
2018-04-08T11:01:50.673Z,10.35
2018-04-08T11:02:57.035Z,9.68
2018-04-08T11:04:03.295Z,11.18
2018-04-08T11:05:15.149Z,11.68
2018-04-08T11:06:21.379Z,12.43
2018-04-08T11:07:27.623Z,12.20
2018-04-08T11:08:33.896Z,15.90
2018-04-08T11:09:40.253Z,13.65
2018-04-08T11:10:46.480Z,12.82
2018-04-08T11:11:52.560Z,12.85
2018-04-08T11:12:58.539Z,12.20
2018-04-08T11:14:04.893Z,11.68
2018-04-08T11:15:11.788Z,11.10
2018-04-08T11:16:17.901Z,12.70
2018-04-08T11:17:24.260Z,12.98
2018-04-08T11:18:30.667Z,13.20
2018-04-08T11:19:37.079Z,13.25
2018-04-08T11:20:43.389Z,13.18
2018-04-08T11:21:49.712Z,14.70
2018-04-08T11:22:56.023Z,14.50
2018-04-08T11:24:02.340Z,15.43
2018-04-08T11:25:13.419Z,14.60
2018-04-08T11:26:21.051Z,18.05
2018-04-08T11:27:28.359Z,14.70
2018-04-08T11:28:34.832Z,15.45
2018-04-08T11:29:40.921Z,16.15
2018-04-08T11:30:47.265Z,25.37
2018-04-08T11:31:53.568Z,14.52
2018-04-08T11:32:59.984Z,14.80
2018-04-08T11:34:06.327Z,16.50
2018-04-08T11:35:12.612Z,16.37
2018-04-08T11:36:18.916Z,15.18
2018-04-08T11:37:24.915Z,15.35
2018-04-08T11:38:31.269Z,15.13
2018-04-08T11:39:37.532Z,14.60
2018-04-08T11:40:43.865Z,14.80
2018-04-08T11:41:51.169Z,16.17
2018-04-08T11:42:57.512Z,16.20
2018-04-08T11:44:04.444Z,15.90
2018-04-08T11:45:10.739Z,15.18
2018-04-08T11:46:16.956Z,15.35
2018-04-08T11:47:24.911Z,15.73
2018-04-08T11:48:36.398Z,17.77
2018-04-08T11:49:42.512Z,16.27
2018-04-08T11:50:48.861Z,15.48
2018-04-08T11:51:55.482Z,16.40
2018-04-08T11:53:01.796Z,15.35
2018-04-08T11:54:08.172Z,15.35
2018-04-08T11:55:14.407Z,14.60
2018-04-08T11:56:20.741Z,15.27
2018-04-08T11:57:27.045Z,15.30
2018-04-08T11:58:33.116Z,16.62
2018-04-08T11:59:39.109Z,15.52
2018-04-08T12:00:45.225Z,16.05
2018-04-08T12:01:51.937Z,16.30
2018-04-08T12:02:57.958Z,16.00
2018-04-08T12:04:04.260Z,15.63
2018-04-08T12:05:10.273Z,15.43
2018-04-08T12:06:16.578Z,14.15
2018-04-08T12:07:22.703Z,14.15
2018-04-08T12:08:29.040Z,14.27
2018-04-08T12:09:36.548Z,15.00
2018-04-08T12:10:42.827Z,15.30
2018-04-08T12:11:49.126Z,17.27
2018-04-08T12:12:55.412Z,15.70
2018-04-08T12:14:01.707Z,15.57
2018-04-08T12:15:08.249Z,15.18
2018-04-08T12:16:14.544Z,14.60
2018-04-08T12:17:20.858Z,15.15
2018-04-08T12:18:26.953Z,14.35
2018-04-08T12:19:33.667Z,15.32
2018-04-08T12:20:39.944Z,13.80
2018-04-08T12:21:46.013Z,14.15
2018-04-08T12:22:52.195Z,13.02
2018-04-08T12:23:58.293Z,13.62
2018-04-08T12:25:04.408Z,14.60
2018-04-08T12:26:10.409Z,14.40
2018-04-08T12:27:16.992Z,13.88
2018-04-08T12:28:23.131Z,13.62
2018-04-08T12:29:29.944Z,15.20
2018-04-08T12:30:35.984Z,14.95
2018-04-08T12:31:42.164Z,13.10
2018-04-08T12:32:49.541Z,14.70
2018-04-08T12:33:56.438Z,13.43
2018-04-08T12:35:02.671Z,11.85
2018-04-08T12:36:08.987Z,12.77
2018-04-08T12:37:15.942Z,10.70
2018-04-08T12:38:22.220Z,12.52
2018-04-08T12:39:28.537Z,13.20
2018-04-08T12:40:34.632Z,12.52
2018-04-08T12:41:40.930Z,12.05
2018-04-08T12:42:47.167Z,14.00
2018-04-08T12:43:53.480Z,13.40
2018-04-08T12:45:00.304Z,13.77
2018-04-08T12:46:07.837Z,12.80
2018-04-08T12:47:14.156Z,13.90
2018-04-08T12:48:20.473Z,12.90
2018-04-08T12:49:26.640Z,12.45
2018-04-08T12:50:32.650Z,13.48
2018-04-08T12:51:39.076Z,12.88
2018-04-08T12:52:45.512Z,15.00
2018-04-08T12:53:51.291Z,12.70
2018-04-08T12:54:57.273Z,11.77
2018-04-08T12:56:03.533Z,13.62
2018-04-08T12:57:09.828Z,12.82
2018-04-08T12:58:16.139Z,12.30
2018-04-08T12:59:22.419Z,14.02
2018-04-08T13:00:28.685Z,12.88
2018-04-08T13:01:35.174Z,13.02
2018-04-08T13:02:41.255Z,15.57
2018-04-08T13:03:47.535Z,14.38
2018-04-08T13:04:53.806Z,14.90
2018-04-08T13:06:00.127Z,13.88
2018-04-08T13:07:06.203Z,14.15
2018-04-08T13:08:12.540Z,14.18
2018-04-08T13:09:18.856Z,15.15
2018-04-08T13:10:25.168Z,14.38
2018-04-08T13:11:31.510Z,15.10
2018-04-08T13:12:37.560Z,14.60
2018-04-08T13:13:43.555Z,15.48
2018-04-08T13:14:49.783Z,15.43
2018-04-08T13:15:55.788Z,14.98
2018-04-08T13:17:02.019Z,15.57
2018-04-08T13:18:08.617Z,14.70
2018-04-08T13:19:14.820Z,14.75
2018-04-08T13:20:20.896Z,15.05
2018-04-08T13:21:27.027Z,14.80
2018-04-08T13:22:33.307Z,14.20
2018-04-08T13:23:39.586Z,14.90
2018-04-08T13:24:45.912Z,14.55
2018-04-08T13:26:00.073Z,14.25
2018-04-08T13:27:07.119Z,14.00
2018-04-08T13:28:13.426Z,13.25
2018-04-08T13:29:19.741Z,13.13
2018-04-08T13:30:26.080Z,12.40
2018-04-08T13:31:32.372Z,14.02
2018-04-08T13:32:38.673Z,13.88
2018-04-08T13:33:44.986Z,13.75
2018-04-08T13:34:51.016Z,14.05
2018-04-08T13:35:57.912Z,12.82
2018-04-08T13:37:04.230Z,14.13
2018-04-08T13:38:11.144Z,13.82
2018-04-08T13:39:17.247Z,15.88
2018-04-08T13:40:23.320Z,15.13
2018-04-08T13:41:29.678Z,13.70
2018-04-08T13:42:36.031Z,15.07
2018-04-08T13:43:42.415Z,13.45
2018-04-08T13:44:48.691Z,13.88
2018-04-08T13:45:54.971Z,14.30
2018-04-08T13:47:01.347Z,15.65
2018-04-08T13:48:07.651Z,13.50
2018-04-08T13:49:13.974Z,13.65
2018-04-08T13:50:20.892Z,14.13
2018-04-08T13:51:27.189Z,12.48
2018-04-08T13:52:33.227Z,13.20
2018-04-08T13:53:39.568Z,13.57
2018-04-08T13:54:45.840Z,14.05
2018-04-08T13:55:52.136Z,13.23
2018-04-08T13:56:58.464Z,13.38
2018-04-08T13:58:04.864Z,13.93
2018-04-08T13:59:11.187Z,12.98
2018-04-08T14:00:17.502Z,13.75
2018-04-08T14:01:23.616Z,13.27
2018-04-08T14:02:29.901Z,23.08
2018-04-08T14:03:36.234Z,12.43
2018-04-08T14:04:42.604Z,13.35
2018-04-08T14:05:48.953Z,11.57
2018-04-08T14:06:55.416Z,13.23
2018-04-08T14:08:01.792Z,12.85
2018-04-08T14:09:08.130Z,13.48
2018-04-08T14:10:14.720Z,12.57
2018-04-08T14:11:21.018Z,13.38
2018-04-08T14:12:27.442Z,13.60
2018-04-08T14:13:34.671Z,12.80
2018-04-08T14:14:40.991Z,12.10
2018-04-08T14:15:47.299Z,13.90
2018-04-08T14:16:54.181Z,13.50
2018-04-08T14:18:00.438Z,13.40
2018-04-08T14:19:06.752Z,15.82
2018-04-08T14:20:13.166Z,13.60
2018-04-08T14:21:19.465Z,14.63
2018-04-08T14:22:25.785Z,14.55
2018-04-08T14:23:32.102Z,15.07
2018-04-08T14:24:38.650Z,15.32
2018-04-08T14:25:44.923Z,13.82
2018-04-08T14:26:51.236Z,13.85
2018-04-08T14:27:57.557Z,13.45
2018-04-08T14:29:03.860Z,14.75
2018-04-08T14:30:10.184Z,15.00
2018-04-08T14:31:16.600Z,15.13
2018-04-08T14:32:22.914Z,14.90
2018-04-08T14:33:28.988Z,15.52
2018-04-08T14:34:35.307Z,14.57
2018-04-08T14:35:41.338Z,14.02
2018-04-08T14:36:50.803Z,13.02
2018-04-08T14:37:56.764Z,13.62
2018-04-08T14:39:02.903Z,12.18
2018-04-08T14:40:08.892Z,15.43
2018-04-08T14:41:15.116Z,15.02
2018-04-08T14:42:21.253Z,14.27
2018-04-08T14:43:27.543Z,14.82
2018-04-08T14:44:33.875Z,16.02
2018-04-08T14:45:39.944Z,14.30
2018-04-08T14:46:46.285Z,17.10
2018-04-08T14:47:52.356Z,16.62
2018-04-08T14:48:58.640Z,16.58
2018-04-08T14:50:04.666Z,17.58
2018-04-08T14:51:10.671Z,17.40
2018-04-08T14:52:16.924Z,17.70
2018-04-08T14:53:23.258Z,15.73
2018-04-08T14:54:29.539Z,20.30
2018-04-08T14:55:36.465Z,19.17
2018-04-08T14:56:42.687Z,20.30
2018-04-08T14:57:54.936Z,20.90
2018-04-08T14:59:00.980Z,20.12
2018-04-08T15:00:07.001Z,26.48
2018-04-08T15:01:13.141Z,21.60
2018-04-08T15:02:19.359Z,22.10
2018-04-08T15:03:25.672Z,23.90
2018-04-08T15:04:31.986Z,20.20
2018-04-08T15:05:38.059Z,22.87
2018-04-08T15:06:44.105Z,23.20
2018-04-08T15:07:50.188Z,24.70
2018-04-08T15:08:56.217Z,24.65
2018-04-08T15:10:03.686Z,25.12
2018-04-08T15:11:09.996Z,23.62
2018-04-08T15:12:16.271Z,25.62
2018-04-08T15:13:22.327Z,24.25
2018-04-08T15:14:28.392Z,24.52
2018-04-08T15:15:34.546Z,25.80
2018-04-08T15:16:41.204Z,25.55
2018-04-08T15:17:47.363Z,25.37
2018-04-08T15:18:54.027Z,24.20
2018-04-08T15:20:00.348Z,24.90
2018-04-08T15:21:06.676Z,22.40
2018-04-08T15:22:12.746Z,24.77
2018-04-08T15:23:18.733Z,22.00
2018-04-08T15:24:24.751Z,23.25
2018-04-08T15:25:31.284Z,21.62
2018-04-08T15:26:37.628Z,24.20
2018-04-08T15:27:43.925Z,24.15
2018-04-08T15:28:50.245Z,23.58
2018-04-08T15:29:56.548Z,25.52
2018-04-08T15:31:02.856Z,25.40
2018-04-08T15:32:09.164Z,22.42
2018-04-08T15:33:20.229Z,23.35
2018-04-08T15:34:26.497Z,24.73
2018-04-08T15:35:33.433Z,23.55
2018-04-08T15:36:39.744Z,23.35
2018-04-08T15:37:46.048Z,22.90
2018-04-08T15:38:52.352Z,22.83
2018-04-08T15:39:58.540Z,21.90
2018-04-08T15:41:04.580Z,26.50
2018-04-08T15:42:11.270Z,23.67
2018-04-08T15:43:17.485Z,24.25
2018-04-08T15:44:23.521Z,23.77
2018-04-08T15:45:29.810Z,23.08
2018-04-08T15:46:36.045Z,24.33
2018-04-08T15:47:42.870Z,22.70
2018-04-08T15:48:49.841Z,23.33
2018-04-08T15:49:56.376Z,23.33
2018-04-08T15:51:02.620Z,24.00
2018-04-08T15:52:08.695Z,24.08
2018-04-08T15:53:15.021Z,23.80
2018-04-08T15:54:21.232Z,23.65
2018-04-08T15:55:27.556Z,24.33
2018-04-08T15:56:34.648Z,22.83
2018-04-08T15:57:40.868Z,21.70
2018-04-08T15:58:47.245Z,23.10
2018-04-08T15:59:53.510Z,22.83
2018-04-08T16:00:59.859Z,23.00
2018-04-08T16:02:06.654Z,24.58
2018-04-08T16:03:12.969Z,22.15
2018-04-08T16:04:19.282Z,21.87
2018-04-08T16:05:25.360Z,23.08
2018-04-08T16:06:31.566Z,22.75
2018-04-08T16:07:37.553Z,20.83
2018-04-08T16:08:44.433Z,22.65
2018-04-08T16:09:50.487Z,22.62
2018-04-08T16:10:56.756Z,22.48
2018-04-08T16:12:03.040Z,22.52
2018-04-08T16:13:09.123Z,23.17
2018-04-08T16:14:15.453Z,23.52
2018-04-08T16:15:21.709Z,22.05
2018-04-08T16:16:27.995Z,22.77
2018-04-08T16:17:34.312Z,23.10
2018-04-08T16:18:40.636Z,22.08
2018-04-08T16:19:48.745Z,20.42
2018-04-08T16:20:55.648Z,23.55
2018-04-08T16:22:01.629Z,23.52
2018-04-08T16:23:07.909Z,23.20
2018-04-08T16:24:14.168Z,22.55
2018-04-08T16:25:20.429Z,23.40
2018-04-08T16:26:26.771Z,23.73
2018-04-08T16:27:33.060Z,22.87
2018-04-08T16:28:39.384Z,23.05
2018-04-08T16:29:45.691Z,22.13
2018-04-08T16:30:51.760Z,23.60
2018-04-08T16:31:57.996Z,22.00
2018-04-08T16:33:04.329Z,22.00
2018-04-08T16:34:11.449Z,21.02
2018-04-08T16:35:17.841Z,22.90
2018-04-08T16:36:23.981Z,20.48
2018-04-08T16:37:30.818Z,21.80
2018-04-08T16:38:37.392Z,23.50
2018-04-08T16:39:44.247Z,24.48
2018-04-08T16:40:50.683Z,23.62
2018-04-08T16:41:57.505Z,22.80
2018-04-08T16:43:07.985Z,21.48
2018-04-08T16:44:15.553Z,23.25
2018-04-08T16:45:23.483Z,24.55
2018-04-08T16:46:30.634Z,23.30
2018-04-08T16:47:38.447Z,22.83
2018-04-08T16:48:46.310Z,24.48
2018-04-08T16:49:54.130Z,22.83
2018-04-08T16:51:02.487Z,23.30
2018-04-08T16:52:10.317Z,23.20
2018-04-08T16:53:18.201Z,24.63
2018-04-08T16:54:28.699Z,25.33
2018-04-08T16:55:40.408Z,25.42
2018-04-08T16:56:51.176Z,24.80
2018-04-08T16:57:59.610Z,24.73
2018-04-08T17:00:48.026Z,24.52
2018-04-08T17:01:58.263Z,25.62
2018-04-08T17:03:08.730Z,24.12
2018-04-08T17:04:23.554Z,25.00
2018-04-08T17:05:33.452Z,25.08
2018-04-08T17:06:42.450Z,25.15
2018-04-08T17:07:50.862Z,24.90
2018-04-08T17:08:58.139Z,25.00
2018-04-08T17:10:07.135Z,24.65
2018-04-08T17:11:15.473Z,23.92
2018-04-08T17:12:25.273Z,23.95
2018-04-08T17:13:35.530Z,24.83
2018-04-08T17:14:47.452Z,24.63
2018-04-08T17:15:55.116Z,24.25
2018-04-08T17:17:03.561Z,25.85
2018-04-08T17:18:16.545Z,24.10
2018-04-08T17:19:24.899Z,23.95
2018-04-08T17:20:34.099Z,24.00
2018-04-08T17:21:43.635Z,24.63
2018-04-08T17:22:53.473Z,24.75
2018-04-08T17:24:02.927Z,25.83
2018-04-08T17:25:12.768Z,25.90
2018-04-08T17:26:33.384Z,24.45
2018-04-08T17:27:43.660Z,25.37
2018-04-08T17:28:51.654Z,23.80
2018-04-08T17:30:06.651Z,25.70
2018-04-08T17:31:16.434Z,25.30
2018-04-08T17:32:26.488Z,25.62
2018-04-08T17:33:35.247Z,24.95
2018-04-08T17:34:47.275Z,25.80
2018-04-08T17:35:54.521Z,28.08
2018-04-08T17:37:15.504Z,27.13
2018-04-08T17:38:24.506Z,27.13
2018-04-08T17:39:31.714Z,25.37
2018-04-08T17:40:41.962Z,24.80
2018-04-08T17:41:50.951Z,25.62
2018-04-08T17:42:59.217Z,26.23
2018-04-08T17:44:06.232Z,26.42
2018-04-08T17:45:15.259Z,26.60
2018-04-08T17:46:24.302Z,25.75
2018-04-08T17:47:33.720Z,26.65
2018-04-08T17:48:42.722Z,25.67
2018-04-08T17:49:52.427Z,26.12
2018-04-08T17:51:00.973Z,25.35
2018-04-08T17:52:09.932Z,27.48
2018-04-08T17:53:18.924Z,28.85
2018-04-08T17:54:27.973Z,25.88
2018-04-08T17:55:35.503Z,26.55
2018-04-08T17:56:45.150Z,26.62
2018-04-08T17:57:53.194Z,28.90
2018-04-08T17:59:00.767Z,28.08
2018-04-08T18:00:09.234Z,30.80
2018-04-08T18:01:16.782Z,27.50
2018-04-08T18:02:24.591Z,27.37
2018-04-08T18:03:31.667Z,31.62
2018-04-08T18:04:38.505Z,28.02
2018-04-08T18:05:46.368Z,27.65
2018-04-08T18:06:55.120Z,26.77
2018-04-08T18:08:04.362Z,28.00
2018-04-08T18:09:13.457Z,26.20
2018-04-08T18:10:23.835Z,27.80
2018-04-08T18:11:31.654Z,26.80
2018-04-08T18:12:38.984Z,26.70
2018-04-08T18:13:46.340Z,26.98
2018-04-08T18:14:53.455Z,27.98
2018-04-08T18:16:01.824Z,26.33
2018-04-08T18:17:13.190Z,27.73
2018-04-08T18:18:20.833Z,27.45
2018-04-08T18:19:30.717Z,26.48
2018-04-08T18:20:37.801Z,27.10
2018-04-08T18:21:45.111Z,27.75
2018-04-08T18:22:52.984Z,31.80
2018-04-08T18:24:02.378Z,36.25
2018-04-08T18:25:10.364Z,26.35
2018-04-08T18:26:18.488Z,33.67
2018-04-08T18:27:29.063Z,30.52
2018-04-08T18:28:37.830Z,30.00
2018-04-08T18:29:44.977Z,31.65
2018-04-08T18:30:53.541Z,31.98
2018-04-08T18:32:00.621Z,31.50
2018-04-08T18:33:09.689Z,37.70
2018-04-08T18:34:18.690Z,36.55
2018-04-08T18:35:26.306Z,33.22
2018-04-08T18:36:33.292Z,35.05
2018-04-08T18:37:40.520Z,33.92
2018-04-08T18:38:48.217Z,31.00
2018-04-08T18:39:55.974Z,32.58
2018-04-08T18:41:03.599Z,32.67
2018-04-08T18:42:10.832Z,32.22
2018-04-08T18:43:18.222Z,34.45
2018-04-08T18:44:26.020Z,29.73
2018-04-08T18:45:34.009Z,30.65
2018-04-08T18:46:44.219Z,32.33
2018-04-08T18:47:54.658Z,32.55
2018-04-08T18:49:05.787Z,31.87
2018-04-08T18:50:15.114Z,32.53
2018-04-08T18:51:23.681Z,33.10
2018-04-08T18:52:33.256Z,30.80
2018-04-08T18:53:41.980Z,33.53
2018-04-08T18:54:50.489Z,34.15
2018-04-08T18:56:00.805Z,34.90
2018-04-08T18:57:10.434Z,35.92
2018-04-08T18:58:19.424Z,34.13
2018-04-08T18:59:27.314Z,33.20
2018-04-08T19:00:37.643Z,37.58
2018-04-08T19:01:49.838Z,35.10
2018-04-08T19:03:01.783Z,35.30
2018-04-08T19:04:10.032Z,34.05
2018-04-08T19:05:18.604Z,36.20
2018-04-08T19:06:26.793Z,36.90
2018-04-08T19:07:36.975Z,33.78
2018-04-08T19:08:49.575Z,35.20
2018-04-08T19:09:59.919Z,36.88
2018-04-08T19:11:07.138Z,32.90
2018-04-08T19:12:15.759Z,35.13
2018-04-08T19:13:24.872Z,33.13
2018-04-08T19:14:38.842Z,32.38
2018-04-08T19:15:46.890Z,31.52
2018-04-08T19:16:54.354Z,32.90
2018-04-08T19:18:03.611Z,30.73
2018-04-08T19:19:12.462Z,30.17
2018-04-08T19:20:20.025Z,32.60
2018-04-08T19:21:28.925Z,33.42
2018-04-08T19:22:38.319Z,32.42
2018-04-08T19:23:49.488Z,30.92
2018-04-08T19:24:57.072Z,30.35
2018-04-08T19:26:05.726Z,30.25
2018-04-08T19:27:19.617Z,32.60
2018-04-08T19:28:28.618Z,31.98
2018-04-08T19:29:36.078Z,31.75
2018-04-08T19:30:44.157Z,32.38
2018-04-08T19:31:54.579Z,31.85
2018-04-08T19:33:02.355Z,31.95
2018-04-08T19:34:09.980Z,32.30
2018-04-08T19:35:16.889Z,31.52
2018-04-08T19:36:25.048Z,32.30
2018-04-08T19:37:33.063Z,34.30
2018-04-08T19:38:40.972Z,30.55
2018-04-08T19:39:48.948Z,32.47
2018-04-08T19:40:56.769Z,32.15
2018-04-08T19:42:06.391Z,30.15
2018-04-08T19:43:14.166Z,32.30
2018-04-08T19:44:21.989Z,32.85
2018-04-08T19:45:31.218Z,33.28
2018-04-08T19:46:39.273Z,34.55
2018-04-08T19:47:47.325Z,35.05
2018-04-08T19:48:54.660Z,34.08
2018-04-08T19:50:02.095Z,32.30
2018-04-08T19:51:09.792Z,32.28
2018-04-08T19:52:17.636Z,34.40
2018-04-08T19:53:24.734Z,36.40
2018-04-08T19:54:33.238Z,30.98
2018-04-08T19:55:41.837Z,37.08
2018-04-08T19:56:55.597Z,32.53
2018-04-08T19:58:02.963Z,33.30
2018-04-08T19:59:10.152Z,32.63
2018-04-08T20:00:17.669Z,34.00
2018-04-08T20:01:25.696Z,34.63
2018-04-08T20:02:33.082Z,36.20
2018-04-08T20:03:41.793Z,36.63
2018-04-08T20:04:49.552Z,34.90
2018-04-08T20:05:58.238Z,37.20
2018-04-08T20:07:06.103Z,42.38
2018-04-08T20:08:13.670Z,37.53
2018-04-08T20:09:21.168Z,38.08
2018-04-08T20:10:28.238Z,36.58
2018-04-08T20:11:35.432Z,34.42
2018-04-08T20:12:42.316Z,36.00
2018-04-08T20:13:49.098Z,35.88
2018-04-08T20:14:56.466Z,40.85
2018-04-08T20:16:03.379Z,41.30
2018-04-08T20:17:10.830Z,35.63
2018-04-08T20:18:17.821Z,39.55
2018-04-08T20:19:25.080Z,38.67
2018-04-08T20:20:32.866Z,38.30
2018-04-08T20:21:40.316Z,38.85
2018-04-08T20:22:48.404Z,38.60
2018-04-08T20:23:55.880Z,41.15
2018-04-08T20:25:02.563Z,35.30
2018-04-08T20:26:10.609Z,37.10
2018-04-08T20:27:18.205Z,37.85
2018-04-08T20:28:26.044Z,36.50
2018-04-08T20:29:34.089Z,39.70
2018-04-08T20:30:40.920Z,37.17
2018-04-08T20:31:48.122Z,38.60
2018-04-08T20:32:54.890Z,40.08
2018-04-08T20:34:01.460Z,41.10
2018-04-08T20:35:07.756Z,37.97
2018-04-08T20:36:14.999Z,35.10
2018-04-08T20:37:27.169Z,36.03
2018-04-08T20:38:42.484Z,40.42
2018-04-08T20:39:49.464Z,34.97
2018-04-08T20:40:58.765Z,39.92
2018-04-08T20:42:07.420Z,38.28
2018-04-08T20:43:15.786Z,36.38
2018-04-08T20:44:23.074Z,40.78
2018-04-08T20:45:31.620Z,39.72
2018-04-08T20:46:40.772Z,37.28
2018-04-08T20:47:53.861Z,37.38
2018-04-08T20:49:02.237Z,38.50
2018-04-08T20:50:09.851Z,38.85
2018-04-08T20:51:17.360Z,44.10
2018-04-08T20:52:25.223Z,37.40
2018-04-08T20:53:32.478Z,42.03
2018-04-08T20:54:39.674Z,38.42
2018-04-08T20:55:47.037Z,42.58
2018-04-08T20:56:54.248Z,40.25
2018-04-08T20:58:01.011Z,36.65
2018-04-08T20:59:09.937Z,37.72
2018-04-08T21:00:19.168Z,40.67
2018-04-08T21:01:28.139Z,40.50
2018-04-08T21:02:35.863Z,42.62
2018-04-08T21:03:44.636Z,39.65
2018-04-08T21:04:51.922Z,41.55
2018-04-08T21:06:00.408Z,35.28
2018-04-08T21:07:07.856Z,40.25
2018-04-08T21:08:14.911Z,37.97
2018-04-08T21:09:23.315Z,39.85
2018-04-08T21:10:31.708Z,38.40
2018-04-08T21:11:39.922Z,41.05
2018-04-08T21:12:48.101Z,39.55
2018-04-08T21:13:55.814Z,40.45
2018-04-08T21:15:03.496Z,40.78
2018-04-08T21:16:11.263Z,37.25
2018-04-08T21:17:18.862Z,39.38
2018-04-08T21:18:26.120Z,42.25
2018-04-08T21:19:32.679Z,39.25
2018-04-08T21:20:40.298Z,39.97
2018-04-08T21:21:50.604Z,44.00
2018-04-08T21:22:57.568Z,40.00
2018-04-08T21:24:05.040Z,37.55
2018-04-08T21:25:13.322Z,41.10
2018-04-08T21:26:20.376Z,44.40
2018-04-08T21:27:26.576Z,42.13
2018-04-08T21:28:32.776Z,41.05
2018-04-08T21:29:39.591Z,40.97
2018-04-08T21:30:45.884Z,39.53
2018-04-08T21:31:52.284Z,47.60
2018-04-08T21:32:58.560Z,41.72
2018-04-08T21:34:04.532Z,43.70
2018-04-08T21:35:10.562Z,42.90
2018-04-08T21:36:16.785Z,44.20
2018-04-08T21:37:26.462Z,44.28
2018-04-08T21:38:34.130Z,42.38
2018-04-08T21:39:40.364Z,41.22
2018-04-08T21:40:47.191Z,41.42
2018-04-08T21:41:53.504Z,43.87
2018-04-08T21:42:59.656Z,43.85
2018-04-08T21:44:06.320Z,43.40
2018-04-08T21:45:12.395Z,42.55
2018-04-08T21:46:19.207Z,45.95
2018-04-08T21:47:25.427Z,46.20
2018-04-08T21:48:33.062Z,47.90
2018-04-08T21:49:39.050Z,48.42
2018-04-08T21:50:45.079Z,44.42
2018-04-08T21:51:51.637Z,48.08
2018-04-08T21:52:57.680Z,45.83
2018-04-08T21:54:03.664Z,39.65
2018-04-08T21:55:09.789Z,42.25
2018-04-08T21:56:16.169Z,43.78
2018-04-08T21:57:22.441Z,44.08
2018-04-08T21:58:28.652Z,47.78
2018-04-08T21:59:34.954Z,43.97
2018-04-08T22:00:41.195Z,43.35
2018-04-08T22:01:52.127Z,43.38
2018-04-08T22:03:04.042Z,44.75
2018-04-08T22:04:11.094Z,46.42
2018-04-08T22:05:17.376Z,46.65
2018-04-08T22:06:23.604Z,46.42
2018-04-08T22:07:29.949Z,45.22
2018-04-08T22:08:36.408Z,45.38
2018-04-08T22:09:42.758Z,45.55
2018-04-08T22:10:49.062Z,48.00
2018-04-08T22:11:55.344Z,51.88
2018-04-08T22:13:01.669Z,48.42
2018-04-08T22:14:08.510Z,44.03